sensor_id;sensor_type;location;lat;lon;timestamp;P1;durP1;ratioP1;P2;durP2;ratioP2
13605;SDS011;6874;52.084;5.090;2023-02-20T00:02:22;124.83;;;120.07;;
13605;SDS011;6874;52.084;5.090;2023-02-20T00:04:47;129.57;;;124.60;;
13605;SDS011;6874;52.084;5.090;2023-02-20T00:07:13;117.50;;;113.00;;
13605;SDS011;6874;52.084;5.090;2023-02-20T00:09:38;123.93;;;119.23;;
13605;SDS011;6874;52.084;5.090;2023-02-20T00:12:04;121.40;;;116.83;;
13605;SDS011;6874;52.084;5.090;2023-02-20T00:14:30;122.17;;;117.57;;
13605;SDS011;6874;52.084;5.090;2023-02-20T00:16:56;119.23;;;114.73;;
13605;SDS011;6874;52.084;5.090;2023-02-20T00:19:21;112.53;;;108.23;;
13605;SDS011;6874;52.084;5.090;2023-02-20T00:21:47;119.07;;;114.63;;
13605;SDS011;6874;52.084;5.090;2023-02-20T00:24:14;110.17;;;105.97;;
13605;SDS011;6874;52.084;5.090;2023-02-20T00:26:47;110.57;;;106.33;;
13605;SDS011;6874;52.084;5.090;2023-02-20T00:29:20;105.57;;;101.60;;
13605;SDS011;6874;52.084;5.090;2023-02-20T00:31:51;106.37;;;102.33;;
13605;SDS011;6874;52.084;5.090;2023-02-20T00:34:18;106.07;;;102.03;;
13605;SDS011;6874;52.084;5.090;2023-02-20T00:36:44;112.30;;;108.07;;
13605;SDS011;6874;52.084;5.090;2023-02-20T00:39:10;106.33;;;102.30;;
13605;SDS011;6874;52.084;5.090;2023-02-20T00:41:36;109.03;;;104.97;;
13605;SDS011;6874;52.084;5.090;2023-02-20T00:44:01;105.87;;;101.83;;
13605;SDS011;6874;52.084;5.090;2023-02-20T00:46:27;104.03;;;100.17;;
13605;SDS011;6874;52.084;5.090;2023-02-20T00:48:52;100.30;;;96.50;;
13605;SDS011;6874;52.084;5.090;2023-02-20T00:51:18;104.87;;;100.97;;
13605;SDS011;6874;52.084;5.090;2023-02-20T00:53:44;102.93;;;99.07;;
13605;SDS011;6874;52.084;5.090;2023-02-20T00:56:09;104.77;;;100.87;;
13605;SDS011;6874;52.084;5.090;2023-02-20T00:58:35;105.30;;;101.33;;
13605;SDS011;6874;52.084;5.090;2023-02-20T01:01:00;107.87;;;103.90;;
13605;SDS011;6874;52.084;5.090;2023-02-20T01:03:26;103.10;;;99.23;;
13605;SDS011;6874;52.084;5.090;2023-02-20T01:05:51;107.00;;;103.00;;
13605;SDS011;6874;52.084;5.090;2023-02-20T01:08:17;102.17;;;98.30;;
13605;SDS011;6874;52.084;5.090;2023-02-20T01:10:42;110.63;;;106.50;;
13605;SDS011;6874;52.084;5.090;2023-02-20T01:13:08;107.93;;;103.97;;
13605;SDS011;6874;52.084;5.090;2023-02-20T01:15:34;110.83;;;106.67;;
13605;SDS011;6874;52.084;5.090;2023-02-20T01:20:25;115.97;;;111.67;;
13605;SDS011;6874;52.084;5.090;2023-02-20T01:22:50;116.73;;;112.43;;
13605;SDS011;6874;52.084;5.090;2023-02-20T01:25:16;117.67;;;113.30;;
13605;SDS011;6874;52.084;5.090;2023-02-20T01:27:41;116.57;;;112.23;;
13605;SDS011;6874;52.084;5.090;2023-02-20T01:30:07;118.83;;;114.43;;
13605;SDS011;6874;52.084;5.090;2023-02-20T01:32:33;117.80;;;113.43;;
13605;SDS011;6874;52.084;5.090;2023-02-20T01:34:58;126.07;;;121.40;;
13605;SDS011;6874;52.084;5.090;2023-02-20T01:37:24;121.43;;;117.00;;
13605;SDS011;6874;52.084;5.090;2023-02-20T01:39:49;119.03;;;114.63;;
13605;SDS011;6874;52.084;5.090;2023-02-20T01:42:17;117.90;;;113.47;;
13605;SDS011;6874;52.084;5.090;2023-02-20T01:44:46;114.77;;;110.47;;
13605;SDS011;6874;52.084;5.090;2023-02-20T01:47:14;117.03;;;112.73;;
13605;SDS011;6874;52.084;5.090;2023-02-20T01:52:16;105.13;;;101.20;;
13605;SDS011;6874;52.084;5.090;2023-02-20T01:54:45;104.37;;;100.47;;
13605;SDS011;6874;52.084;5.090;2023-02-20T01:57:18;100.50;;;96.73;;
13605;SDS011;6874;52.084;5.090;2023-02-20T01:59:47;96.03;;;92.33;;
13605;SDS011;6874;52.084;5.090;2023-02-20T02:02:14;94.00;;;90.40;;
13605;SDS011;6874;52.084;5.090;2023-02-20T02:04:40;97.17;;;93.53;;
13605;SDS011;6874;52.084;5.090;2023-02-20T02:07:08;87.00;;;83.73;;
13605;SDS011;6874;52.084;5.090;2023-02-20T02:09:54;80.17;;;77.17;;
13605;SDS011;6874;52.084;5.090;2023-02-20T02:12:24;62.13;;;59.93;;
13605;SDS011;6874;52.084;5.090;2023-02-20T02:14:49;68.43;;;65.93;;
13605;SDS011;6874;52.084;5.090;2023-02-20T02:20:26;46.60;;;45.00;;
13605;SDS011;6874;52.084;5.090;2023-02-20T02:31:35;35.37;;;34.20;;
13605;SDS011;6874;52.084;5.090;2023-02-20T02:34:26;39.83;;;38.50;;
13605;SDS011;6874;52.084;5.090;2023-02-20T02:39:59;43.70;;;42.23;;
13605;SDS011;6874;52.084;5.090;2023-02-20T02:43:28;52.20;;;50.40;;
13605;SDS011;6874;52.084;5.090;2023-02-20T02:45:34;62.40;;;60.30;;
13605;SDS011;6874;52.084;5.090;2023-02-20T02:48:27;71.00;;;68.63;;
13605;SDS011;6874;52.084;5.090;2023-02-20T02:51:07;88.00;;;85.00;;
13605;SDS011;6874;52.084;5.090;2023-02-20T02:53:39;84.70;;;81.80;;
13605;SDS011;6874;52.084;5.090;2023-02-20T02:56:04;84.33;;;81.43;;
13605;SDS011;6874;52.084;5.090;2023-02-20T02:58:46;94.97;;;91.67;;
13605;SDS011;6874;52.084;5.090;2023-02-20T03:01:13;95.77;;;92.47;;
13605;SDS011;6874;52.084;5.090;2023-02-20T03:03:40;104.53;;;100.93;;
13605;SDS011;6874;52.084;5.090;2023-02-20T03:06:08;115.93;;;111.93;;
13605;SDS011;6874;52.084;5.090;2023-02-20T03:11:15;123.73;;;119.37;;
13605;SDS011;6874;52.084;5.090;2023-02-20T03:16:31;133.03;;;128.40;;
13605;SDS011;6874;52.084;5.090;2023-02-20T03:19:25;145.10;;;140.00;;
13605;SDS011;6874;52.084;5.090;2023-02-20T03:21:55;157.03;;;151.53;;
13605;SDS011;6874;52.084;5.090;2023-02-20T03:24:23;155.43;;;149.87;;
13605;SDS011;6874;52.084;5.090;2023-02-20T03:26:51;148.60;;;143.37;;
13605;SDS011;6874;52.084;5.090;2023-02-20T03:29:21;154.53;;;148.93;;
13605;SDS011;6874;52.084;5.090;2023-02-20T03:32:05;144.07;;;139.00;;
13605;SDS011;6874;52.084;5.090;2023-02-20T03:34:52;145.03;;;139.90;;
13605;SDS011;6874;52.084;5.090;2023-02-20T03:37:39;162.20;;;156.50;;
13605;SDS011;6874;52.084;5.090;2023-02-20T03:40:26;174.03;;;167.93;;
13605;SDS011;6874;52.084;5.090;2023-02-20T03:43:14;170.07;;;164.10;;
13605;SDS011;6874;52.084;5.090;2023-02-20T03:45:50;170.47;;;164.40;;
13605;SDS011;6874;52.084;5.090;2023-02-20T03:48:21;166.07;;;160.13;;
13605;SDS011;6874;52.084;5.090;2023-02-20T03:50:56;172.97;;;166.80;;
13605;SDS011;6874;52.084;5.090;2023-02-20T03:53:41;157.50;;;152.00;;
13605;SDS011;6874;52.084;5.090;2023-02-20T03:56:09;164.83;;;159.03;;
13605;SDS011;6874;52.084;5.090;2023-02-20T03:58:40;169.87;;;163.80;;
13605;SDS011;6874;52.084;5.090;2023-02-20T04:01:09;164.93;;;159.07;;
13605;SDS011;6874;52.084;5.090;2023-02-20T04:03:39;154.03;;;148.60;;
13605;SDS011;6874;52.084;5.090;2023-02-20T04:06:08;148.23;;;143.03;;
13605;SDS011;6874;52.084;5.090;2023-02-20T04:08:37;151.60;;;146.27;;
13605;SDS011;6874;52.084;5.090;2023-02-20T04:11:08;157.27;;;151.63;;
13605;SDS011;6874;52.084;5.090;2023-02-20T04:13:34;143.47;;;138.40;;
13605;SDS011;6874;52.084;5.090;2023-02-20T04:16:02;140.87;;;135.93;;
13605;SDS011;6874;52.084;5.090;2023-02-20T04:18:29;145.43;;;140.30;;
13605;SDS011;6874;52.084;5.090;2023-02-20T04:20:56;152.10;;;146.73;;
13605;SDS011;6874;52.084;5.090;2023-02-20T04:23:25;148.43;;;143.23;;
13605;SDS011;6874;52.084;5.090;2023-02-20T04:26:06;152.10;;;146.67;;
13605;SDS011;6874;52.084;5.090;2023-02-20T04:28:41;140.10;;;135.20;;
13605;SDS011;6874;52.084;5.090;2023-02-20T04:31:08;150.23;;;144.93;;
13605;SDS011;6874;52.084;5.090;2023-02-20T04:33:37;149.70;;;144.47;;
13605;SDS011;6874;52.084;5.090;2023-02-20T04:36:03;141.23;;;136.33;;
13605;SDS011;6874;52.084;5.090;2023-02-20T04:38:28;139.13;;;134.23;;
13605;SDS011;6874;52.084;5.090;2023-02-20T04:40:54;146.40;;;141.23;;
13605;SDS011;6874;52.084;5.090;2023-02-20T04:43:20;144.17;;;139.07;;
13605;SDS011;6874;52.084;5.090;2023-02-20T04:45:45;137.43;;;132.67;;
13605;SDS011;6874;52.084;5.090;2023-02-20T04:48:11;139.90;;;135.03;;
13605;SDS011;6874;52.084;5.090;2023-02-20T04:50:36;144.70;;;139.63;;
13605;SDS011;6874;52.084;5.090;2023-02-20T04:53:02;137.13;;;132.30;;
13605;SDS011;6874;52.084;5.090;2023-02-20T04:55:28;144.23;;;139.23;;
13605;SDS011;6874;52.084;5.090;2023-02-20T04:57:54;140.80;;;135.87;;
13605;SDS011;6874;52.084;5.090;2023-02-20T05:00:22;138.93;;;134.00;;
13605;SDS011;6874;52.084;5.090;2023-02-20T05:02:48;145.83;;;140.73;;
13605;SDS011;6874;52.084;5.090;2023-02-20T05:05:15;143.13;;;138.07;;
13605;SDS011;6874;52.084;5.090;2023-02-20T05:07:45;132.50;;;127.87;;
13605;SDS011;6874;52.084;5.090;2023-02-20T05:10:15;129.20;;;124.70;;
13605;SDS011;6874;52.084;5.090;2023-02-20T05:12:42;140.87;;;135.93;;
13605;SDS011;6874;52.084;5.090;2023-02-20T05:15:08;133.57;;;128.90;;
13605;SDS011;6874;52.084;5.090;2023-02-20T05:17:34;136.10;;;131.30;;
13605;SDS011;6874;52.084;5.090;2023-02-20T05:20:00;132.60;;;127.97;;
13605;SDS011;6874;52.084;5.090;2023-02-20T05:22:26;136.23;;;131.40;;
13605;SDS011;6874;52.084;5.090;2023-02-20T05:24:52;129.90;;;125.37;;
13605;SDS011;6874;52.084;5.090;2023-02-20T05:27:18;134.43;;;129.73;;
13605;SDS011;6874;52.084;5.090;2023-02-20T05:29:45;134.37;;;129.67;;
13605;SDS011;6874;52.084;5.090;2023-02-20T05:32:16;133.63;;;128.90;;
13605;SDS011;6874;52.084;5.090;2023-02-20T05:34:42;127.33;;;122.83;;
13605;SDS011;6874;52.084;5.090;2023-02-20T05:37:09;129.53;;;125.03;;
13605;SDS011;6874;52.084;5.090;2023-02-20T05:39:35;133.10;;;128.43;;
13605;SDS011;6874;52.084;5.090;2023-02-20T05:42:01;126.90;;;122.43;;
13605;SDS011;6874;52.084;5.090;2023-02-20T05:44:26;127.77;;;123.27;;
13605;SDS011;6874;52.084;5.090;2023-02-20T05:46:52;127.43;;;122.93;;
13605;SDS011;6874;52.084;5.090;2023-02-20T05:49:20;131.60;;;127.00;;
13605;SDS011;6874;52.084;5.090;2023-02-20T05:51:46;132.97;;;128.30;;
13605;SDS011;6874;52.084;5.090;2023-02-20T05:54:14;134.23;;;129.50;;
13605;SDS011;6874;52.084;5.090;2023-02-20T05:56:41;138.03;;;133.17;;
13605;SDS011;6874;52.084;5.090;2023-02-20T05:59:07;134.77;;;130.07;;
13605;SDS011;6874;52.084;5.090;2023-02-20T06:01:33;138.53;;;133.63;;
13605;SDS011;6874;52.084;5.090;2023-02-20T06:03:59;133.83;;;129.13;;
13605;SDS011;6874;52.084;5.090;2023-02-20T06:06:33;132.03;;;127.40;;
13605;SDS011;6874;52.084;5.090;2023-02-20T06:09:01;139.13;;;134.33;;
13605;SDS011;6874;52.084;5.090;2023-02-20T06:11:27;130.17;;;125.57;;
13605;SDS011;6874;52.084;5.090;2023-02-20T06:13:53;138.33;;;133.43;;
13605;SDS011;6874;52.084;5.090;2023-02-20T06:16:22;135.40;;;130.60;;
13605;SDS011;6874;52.084;5.090;2023-02-20T06:18:50;130.70;;;126.10;;
13605;SDS011;6874;52.084;5.090;2023-02-20T06:21:16;134.40;;;129.67;;
13605;SDS011;6874;52.084;5.090;2023-02-20T06:23:42;140.03;;;135.13;;
13605;SDS011;6874;52.084;5.090;2023-02-20T06:26:12;131.60;;;127.00;;
13605;SDS011;6874;52.084;5.090;2023-02-20T06:28:38;127.63;;;123.13;;
13605;SDS011;6874;52.084;5.090;2023-02-20T06:31:05;138.93;;;134.03;;
13605;SDS011;6874;52.084;5.090;2023-02-20T06:33:31;131.07;;;126.47;;
13605;SDS011;6874;52.084;5.090;2023-02-20T06:35:57;129.93;;;125.33;;
13605;SDS011;6874;52.084;5.090;2023-02-20T06:38:23;131.80;;;127.17;;
13605;SDS011;6874;52.084;5.090;2023-02-20T06:40:50;140.40;;;135.43;;
13605;SDS011;6874;52.084;5.090;2023-02-20T06:43:16;134.13;;;129.43;;
13605;SDS011;6874;52.084;5.090;2023-02-20T06:45:42;134.20;;;129.50;;
13605;SDS011;6874;52.084;5.090;2023-02-20T06:48:08;128.43;;;123.90;;
13605;SDS011;6874;52.084;5.090;2023-02-20T06:50:34;128.97;;;124.37;;
13605;SDS011;6874;52.084;5.090;2023-02-20T06:52:59;135.27;;;130.57;;
13605;SDS011;6874;52.084;5.090;2023-02-20T06:55:25;142.57;;;137.57;;
13605;SDS011;6874;52.084;5.090;2023-02-20T06:57:50;135.87;;;131.07;;
13605;SDS011;6874;52.084;5.090;2023-02-20T07:00:16;136.70;;;131.90;;
13605;SDS011;6874;52.084;5.090;2023-02-20T07:02:42;135.97;;;131.17;;
13605;SDS011;6874;52.084;5.090;2023-02-20T07:05:09;136.30;;;131.50;;
13605;SDS011;6874;52.084;5.090;2023-02-20T07:07:35;140.03;;;135.13;;
13605;SDS011;6874;52.084;5.090;2023-02-20T07:10:02;137.97;;;133.17;;
13605;SDS011;6874;52.084;5.090;2023-02-20T07:12:30;138.13;;;133.37;;
13605;SDS011;6874;52.084;5.090;2023-02-20T07:14:57;138.27;;;133.43;;
13605;SDS011;6874;52.084;5.090;2023-02-20T07:17:23;142.00;;;136.93;;
13605;SDS011;6874;52.084;5.090;2023-02-20T07:19:49;135.77;;;131.03;;
13605;SDS011;6874;52.084;5.090;2023-02-20T07:22:15;136.60;;;131.87;;
13605;SDS011;6874;52.084;5.090;2023-02-20T07:24:41;139.87;;;134.97;;
13605;SDS011;6874;52.084;5.090;2023-02-20T07:27:07;127.80;;;123.33;;
13605;SDS011;6874;52.084;5.090;2023-02-20T07:29:34;136.77;;;131.97;;
13605;SDS011;6874;52.084;5.090;2023-02-20T07:32:01;139.77;;;134.87;;
13605;SDS011;6874;52.084;5.090;2023-02-20T07:34:26;129.37;;;124.87;;
13605;SDS011;6874;52.084;5.090;2023-02-20T07:36:52;129.23;;;124.63;;
13605;SDS011;6874;52.084;5.090;2023-02-20T07:39:17;131.90;;;127.33;;
13605;SDS011;6874;52.084;5.090;2023-02-20T07:41:43;129.83;;;125.27;;
13605;SDS011;6874;52.084;5.090;2023-02-20T07:44:09;140.57;;;135.67;;
13605;SDS011;6874;52.084;5.090;2023-02-20T07:46:36;134.40;;;129.70;;
13605;SDS011;6874;52.084;5.090;2023-02-20T07:49:03;133.80;;;129.10;;
13605;SDS011;6874;52.084;5.090;2023-02-20T07:51:29;139.20;;;134.40;;
13605;SDS011;6874;52.084;5.090;2023-02-20T07:53:55;131.23;;;126.60;;
13605;SDS011;6874;52.084;5.090;2023-02-20T07:56:21;137.27;;;132.43;;
13605;SDS011;6874;52.084;5.090;2023-02-20T07:58:48;136.37;;;131.60;;
13605;SDS011;6874;52.084;5.090;2023-02-20T08:01:14;129.70;;;125.10;;
13605;SDS011;6874;52.084;5.090;2023-02-20T08:03:40;133.90;;;129.20;;
13605;SDS011;6874;52.084;5.090;2023-02-20T08:06:06;130.67;;;126.03;;
13605;SDS011;6874;52.084;5.090;2023-02-20T08:08:31;134.33;;;129.60;;
13605;SDS011;6874;52.084;5.090;2023-02-20T08:10:57;132.77;;;128.10;;
13605;SDS011;6874;52.084;5.090;2023-02-20T08:13:23;132.50;;;127.83;;
13605;SDS011;6874;52.084;5.090;2023-02-20T08:15:49;133.53;;;128.83;;
13605;SDS011;6874;52.084;5.090;2023-02-20T08:18:15;131.07;;;126.47;;
13605;SDS011;6874;52.084;5.090;2023-02-20T08:20:40;128.27;;;123.67;;
13605;SDS011;6874;52.084;5.090;2023-02-20T08:23:15;130.70;;;126.13;;
13605;SDS011;6874;52.084;5.090;2023-02-20T08:25:42;120.23;;;115.97;;
13605;SDS011;6874;52.084;5.090;2023-02-20T08:28:08;130.53;;;125.90;;
13605;SDS011;6874;52.084;5.090;2023-02-20T08:30:33;121.90;;;117.60;;
13605;SDS011;6874;52.084;5.090;2023-02-20T08:32:59;122.10;;;117.77;;
13605;SDS011;6874;52.084;5.090;2023-02-20T08:35:30;111.70;;;107.77;;
13605;SDS011;6874;52.084;5.090;2023-02-20T08:37:58;109.30;;;105.47;;
13605;SDS011;6874;52.084;5.090;2023-02-20T08:40:25;106.03;;;102.30;;
13605;SDS011;6874;52.084;5.090;2023-02-20T08:42:51;103.27;;;99.67;;
13605;SDS011;6874;52.084;5.090;2023-02-20T08:45:16;95.17;;;91.87;;
13605;SDS011;6874;52.084;5.090;2023-02-20T08:47:42;94.77;;;91.47;;
13605;SDS011;6874;52.084;5.090;2023-02-20T08:50:08;90.43;;;87.27;;
13605;SDS011;6874;52.084;5.090;2023-02-20T08:52:34;86.03;;;83.07;;
13605;SDS011;6874;52.084;5.090;2023-02-20T08:54:59;83.63;;;80.73;;
13605;SDS011;6874;52.084;5.090;2023-02-20T08:57:25;80.87;;;78.07;;
13605;SDS011;6874;52.084;5.090;2023-02-20T08:59:51;75.10;;;72.47;;
13605;SDS011;6874;52.084;5.090;2023-02-20T09:02:17;74.60;;;72.00;;
13605;SDS011;6874;52.084;5.090;2023-02-20T09:04:45;69.90;;;67.47;;
13605;SDS011;6874;52.084;5.090;2023-02-20T09:07:12;71.00;;;68.57;;
13605;SDS011;6874;52.084;5.090;2023-02-20T09:09:38;66.27;;;63.97;;
13605;SDS011;6874;52.084;5.090;2023-02-20T09:12:04;67.77;;;65.37;;
13605;SDS011;6874;52.084;5.090;2023-02-20T09:14:30;67.17;;;64.83;;
13605;SDS011;6874;52.084;5.090;2023-02-20T09:16:56;70.93;;;68.47;;
13605;SDS011;6874;52.084;5.090;2023-02-20T09:19:21;65.17;;;62.90;;
13605;SDS011;6874;52.084;5.090;2023-02-20T09:21:48;65.43;;;63.17;;
13605;SDS011;6874;52.084;5.090;2023-02-20T09:24:14;67.23;;;64.87;;
13605;SDS011;6874;52.084;5.090;2023-02-20T09:26:40;66.23;;;63.90;;
13605;SDS011;6874;52.084;5.090;2023-02-20T09:29:05;65.93;;;63.67;;
13605;SDS011;6874;52.084;5.090;2023-02-20T09:31:31;63.67;;;61.43;;
13605;SDS011;6874;52.084;5.090;2023-02-20T09:33:57;64.60;;;62.37;;
13605;SDS011;6874;52.084;5.090;2023-02-20T09:36:22;63.67;;;61.43;;
13605;SDS011;6874;52.084;5.090;2023-02-20T09:38:48;63.00;;;60.83;;
13605;SDS011;6874;52.084;5.090;2023-02-20T09:41:20;61.20;;;59.10;;
13605;SDS011;6874;52.084;5.090;2023-02-20T09:46:43;64.13;;;61.93;;
13605;SDS011;6874;52.084;5.090;2023-02-20T09:49:15;64.47;;;62.27;;
13605;SDS011;6874;52.084;5.090;2023-02-20T09:51:51;66.67;;;64.40;;
13605;SDS011;6874;52.084;5.090;2023-02-20T09:54:31;64.93;;;62.73;;
13605;SDS011;6874;52.084;5.090;2023-02-20T09:57:00;67.87;;;65.57;;
13605;SDS011;6874;52.084;5.090;2023-02-20T09:59:34;69.33;;;67.00;;
13605;SDS011;6874;52.084;5.090;2023-02-20T10:05:38;52.83;;;51.07;;
13605;SDS011;6874;52.084;5.090;2023-02-20T10:08:08;63.13;;;61.00;;
13605;SDS011;6874;52.084;5.090;2023-02-20T10:10:34;71.00;;;68.60;;
13605;SDS011;6874;52.084;5.090;2023-02-20T10:13:12;73.57;;;71.07;;
13605;SDS011;6874;52.084;5.090;2023-02-20T10:21:02;69.43;;;67.07;;
13605;SDS011;6874;52.084;5.090;2023-02-20T10:26:03;78.53;;;75.83;;
13605;SDS011;6874;52.084;5.090;2023-02-20T10:28:32;73.87;;;71.37;;
13605;SDS011;6874;52.084;5.090;2023-02-20T10:33:46;70.17;;;67.80;;
13605;SDS011;6874;52.084;5.090;2023-02-20T10:39:20;59.60;;;57.60;;
13605;SDS011;6874;52.084;5.090;2023-02-20T10:42:09;70.17;;;67.80;;
13605;SDS011;6874;52.084;5.090;2023-02-20T10:44:55;63.10;;;61.00;;
13605;SDS011;6874;52.084;5.090;2023-02-20T10:47:45;56.03;;;54.13;;
13605;SDS011;6874;52.084;5.090;2023-02-20T10:50:32;66.43;;;64.20;;
13605;SDS011;6874;52.084;5.090;2023-02-20T10:56:08;63.47;;;61.30;;
13605;SDS011;6874;52.084;5.090;2023-02-20T10:58:44;65.37;;;63.17;;
13605;SDS011;6874;52.084;5.090;2023-02-20T11:01:23;61.43;;;59.33;;
13605;SDS011;6874;52.084;5.090;2023-02-20T11:03:58;74.30;;;71.77;;
13605;SDS011;6874;52.084;5.090;2023-02-20T11:06:28;70.57;;;68.13;;
13605;SDS011;6874;52.084;5.090;2023-02-20T11:09:06;68.17;;;65.87;;
13605;SDS011;6874;52.084;5.090;2023-02-20T11:11:35;74.90;;;72.33;;
13605;SDS011;6874;52.084;5.090;2023-02-20T11:14:14;77.97;;;75.30;;
13605;SDS011;6874;52.084;5.090;2023-02-20T11:21:56;71.67;;;69.17;;
13605;SDS011;6874;52.084;5.090;2023-02-20T11:26:59;81.93;;;79.13;;
13605;SDS011;6874;52.084;5.090;2023-02-20T11:29:32;80.93;;;78.20;;
13605;SDS011;6874;52.084;5.090;2023-02-20T11:32:20;85.53;;;82.60;;
13605;SDS011;6874;52.084;5.090;2023-02-20T11:37:39;76.43;;;73.83;;
13605;SDS011;6874;52.084;5.090;2023-02-20T11:40:13;81.00;;;78.20;;
13605;SDS011;6874;52.084;5.090;2023-02-20T11:42:39;81.63;;;78.83;;
13605;SDS011;6874;52.084;5.090;2023-02-20T11:53:25;76.50;;;73.90;;
13605;SDS011;6874;52.084;5.090;2023-02-20T11:56:12;80.50;;;77.77;;
13605;SDS011;6874;52.084;5.090;2023-02-20T11:58:40;74.27;;;71.73;;
13605;SDS011;6874;52.084;5.090;2023-02-20T12:01:07;86.53;;;83.60;;
13605;SDS011;6874;52.084;5.090;2023-02-20T12:03:54;73.00;;;70.53;;
13605;SDS011;6874;52.084;5.090;2023-02-20T12:06:40;84.63;;;81.80;;
13605;SDS011;6874;52.084;5.090;2023-02-20T12:09:10;77.60;;;74.97;;
13605;SDS011;6874;52.084;5.090;2023-02-20T12:11:39;86.70;;;83.73;;
13605;SDS011;6874;52.084;5.090;2023-02-20T12:14:05;82.27;;;79.50;;
13605;SDS011;6874;52.084;5.090;2023-02-20T12:24:52;71.47;;;69.03;;
13605;SDS011;6874;52.084;5.090;2023-02-20T12:44:39;77.80;;;75.20;;
13605;SDS011;6874;52.084;5.090;2023-02-20T12:47:15;72.60;;;70.10;;
13605;SDS011;6874;52.084;5.090;2023-02-20T13:01:17;68.60;;;66.27;;
13605;SDS011;6874;52.084;5.090;2023-02-20T13:06:39;71.07;;;68.63;;
13605;SDS011;6874;52.084;5.090;2023-02-20T13:09:17;75.80;;;73.20;;
13605;SDS011;6874;52.084;5.090;2023-02-20T13:11:49;77.93;;;75.30;;
13605;SDS011;6874;52.084;5.090;2023-02-20T13:17:22;80.40;;;77.67;;
13605;SDS011;6874;52.084;5.090;2023-02-20T13:19:53;77.07;;;74.40;;
13605;SDS011;6874;52.084;5.090;2023-02-20T13:22:23;81.77;;;78.97;;
13605;SDS011;6874;52.084;5.090;2023-02-20T13:24:49;83.53;;;80.67;;
13605;SDS011;6874;52.084;5.090;2023-02-20T13:27:30;88.83;;;85.80;;
13605;SDS011;6874;52.084;5.090;2023-02-20T13:29:57;79.50;;;76.80;;
13605;SDS011;6874;52.084;5.090;2023-02-20T13:32:29;85.63;;;82.70;;
13605;SDS011;6874;52.084;5.090;2023-02-20T13:38:10;75.50;;;72.93;;
13605;SDS011;6874;52.084;5.090;2023-02-20T13:40:44;76.33;;;73.73;;
13605;SDS011;6874;52.084;5.090;2023-02-20T13:45:49;82.73;;;79.93;;
13605;SDS011;6874;52.084;5.090;2023-02-20T13:48:42;77.83;;;75.23;;
13605;SDS011;6874;52.084;5.090;2023-02-20T13:54:02;80.50;;;77.80;;
13605;SDS011;6874;52.084;5.090;2023-02-20T13:59:03;74.87;;;72.33;;
13605;SDS011;6874;52.084;5.090;2023-02-20T14:01:53;76.27;;;73.70;;
13605;SDS011;6874;52.084;5.090;2023-02-20T14:04:20;71.97;;;69.53;;
13605;SDS011;6874;52.084;5.090;2023-02-20T14:06:50;74.47;;;71.97;;
13605;SDS011;6874;52.084;5.090;2023-02-20T14:09:18;68.93;;;66.60;;
13605;SDS011;6874;52.084;5.090;2023-02-20T14:11:51;73.03;;;70.57;;
13605;SDS011;6874;52.084;5.090;2023-02-20T14:14:23;67.43;;;65.13;;
13605;SDS011;6874;52.084;5.090;2023-02-20T14:19:41;68.80;;;66.47;;
13605;SDS011;6874;52.084;5.090;2023-02-20T14:27:36;62.43;;;60.33;;
13605;SDS011;6874;52.084;5.090;2023-02-20T14:30:06;62.87;;;60.77;;
13605;SDS011;6874;52.084;5.090;2023-02-20T14:32:36;62.20;;;60.10;;
13605;SDS011;6874;52.084;5.090;2023-02-20T14:40:40;60.77;;;58.70;;
13605;SDS011;6874;52.084;5.090;2023-02-20T14:43:09;63.80;;;61.60;;
13605;SDS011;6874;52.084;5.090;2023-02-20T14:45:57;62.20;;;60.07;;
13605;SDS011;6874;52.084;5.090;2023-02-20T14:48:32;62.00;;;59.87;;
13605;SDS011;6874;52.084;5.090;2023-02-20T14:51:21;65.63;;;63.37;;
13605;SDS011;6874;52.084;5.090;2023-02-20T14:54:02;64.47;;;62.27;;
13605;SDS011;6874;52.084;5.090;2023-02-20T14:56:47;61.43;;;59.33;;
13605;SDS011;6874;52.084;5.090;2023-02-20T14:59:26;68.07;;;65.70;;
13605;SDS011;6874;52.084;5.090;2023-02-20T15:01:59;67.30;;;64.97;;
13605;SDS011;6874;52.084;5.090;2023-02-20T15:04:26;74.57;;;71.93;;
13605;SDS011;6874;52.084;5.090;2023-02-20T15:06:53;81.30;;;78.43;;
13605;SDS011;6874;52.084;5.090;2023-02-20T15:09:33;79.50;;;76.73;;
13605;SDS011;6874;52.084;5.090;2023-02-20T15:12:03;83.60;;;80.63;;
13605;SDS011;6874;52.084;5.090;2023-02-20T15:14:33;89.97;;;86.83;;
13605;SDS011;6874;52.084;5.090;2023-02-20T15:17:47;88.50;;;85.40;;
13605;SDS011;6874;52.084;5.090;2023-02-20T15:19:58;85.20;;;82.20;;
13605;SDS011;6874;52.084;5.090;2023-02-20T15:27:38;91.73;;;88.57;;
13605;SDS011;6874;52.084;5.090;2023-02-20T15:30:14;103.40;;;99.80;;
13605;SDS011;6874;52.084;5.090;2023-02-20T15:32:42;99.03;;;95.60;;
13605;SDS011;6874;52.084;5.090;2023-02-20T15:35:15;100.73;;;97.23;;
13605;SDS011;6874;52.084;5.090;2023-02-20T15:37:44;100.10;;;96.63;;
13605;SDS011;6874;52.084;5.090;2023-02-20T15:40:18;97.53;;;94.17;;
13605;SDS011;6874;52.084;5.090;2023-02-20T15:42:45;96.17;;;92.80;;
13605;SDS011;6874;52.084;5.090;2023-02-20T15:45:12;94.67;;;91.33;;
13605;SDS011;6874;52.084;5.090;2023-02-20T15:47:37;85.93;;;82.93;;
13605;SDS011;6874;52.084;5.090;2023-02-20T15:50:03;82.80;;;79.93;;
13605;SDS011;6874;52.084;5.090;2023-02-20T15:52:29;81.63;;;78.80;;
13605;SDS011;6874;52.084;5.090;2023-02-20T15:54:56;78.20;;;75.47;;
13605;SDS011;6874;52.084;5.090;2023-02-20T15:57:23;75.37;;;72.73;;
13605;SDS011;6874;52.084;5.090;2023-02-20T15:59:49;71.30;;;68.80;;
13605;SDS011;6874;52.084;5.090;2023-02-20T16:02:15;70.63;;;68.13;;
13605;SDS011;6874;52.084;5.090;2023-02-20T16:04:45;72.37;;;69.77;;
13605;SDS011;6874;52.084;5.090;2023-02-20T16:07:11;66.70;;;64.33;;
13605;SDS011;6874;52.084;5.090;2023-02-20T16:09:38;60.33;;;58.20;;
13605;SDS011;6874;52.084;5.090;2023-02-20T16:12:03;66.87;;;64.47;;
13605;SDS011;6874;52.084;5.090;2023-02-20T16:14:29;64.03;;;61.73;;
13605;SDS011;6874;52.084;5.090;2023-02-20T16:16:55;56.13;;;54.10;;
13605;SDS011;6874;52.084;5.090;2023-02-20T16:19:21;59.43;;;57.33;;
13605;SDS011;6874;52.084;5.090;2023-02-20T16:21:48;62.43;;;60.23;;
13605;SDS011;6874;52.084;5.090;2023-02-20T16:24:14;60.23;;;58.07;;
13605;SDS011;6874;52.084;5.090;2023-02-20T16:26:41;59.27;;;57.13;;
13605;SDS011;6874;52.084;5.090;2023-02-20T16:29:16;56.93;;;54.87;;
13605;SDS011;6874;52.084;5.090;2023-02-20T16:34:20;62.40;;;60.20;;
13605;SDS011;6874;52.084;5.090;2023-02-20T16:36:46;63.53;;;61.23;;
13605;SDS011;6874;52.084;5.090;2023-02-20T16:39:12;61.93;;;59.70;;
13605;SDS011;6874;52.084;5.090;2023-02-20T16:41:37;62.03;;;59.77;;
13605;SDS011;6874;52.084;5.090;2023-02-20T16:44:29;60.80;;;58.60;;
13605;SDS011;6874;52.084;5.090;2023-02-20T16:46:51;55.30;;;53.33;;
13605;SDS011;6874;52.084;5.090;2023-02-20T16:49:17;60.30;;;58.10;;
13605;SDS011;6874;52.084;5.090;2023-02-20T16:51:43;61.97;;;59.70;;
13605;SDS011;6874;52.084;5.090;2023-02-20T16:54:23;63.17;;;60.93;;
13605;SDS011;6874;52.084;5.090;2023-02-20T16:56:48;59.93;;;57.77;;
13605;SDS011;6874;52.084;5.090;2023-02-20T16:59:14;61.43;;;59.20;;